Time;durP1;ratioP1;P1;durP2;ratioP2;P2;SDS_P1;SDS_P2;PMS_P1;PMS_P2;Temp;Humidity;BMP_temperature;BMP_pressure;BME280_temperature;BME280_humidity;BME280_pressure;Samples;Min_cycle;Max_cycle;Signal;HPM_P1;HPM_P2
2021/09/09 00:02:16;;;;;;;7.30;4.35;;;;;;;16.00;48.13;94331.56;4965953;28;20516;-75
2021/09/09 00:04:41;;;;;;;4.95;3.55;;;;;;;16.11;47.72;94329.25;4969377;28;20042;-76
2021/09/09 00:07:06;;;;;;;9.27;4.00;;;;;;;16.12;47.98;94347.69;4974339;28;21055;-75
2021/09/09 00:09:32;;;;;;;4.75;3.90;;;;;;;16.11;48.00;94346.13;4971202;28;20026;-76
2021/09/09 00:11:57;;;;;;;7.03;4.80;;;;;;;16.19;47.88;94353.28;4967385;28;20312;-76
2021/09/09 00:14:23;;;;;;;6.78;4.97;;;;;;;16.26;47.83;94336.63;4967648;28;20889;-76
2021/09/09 00:16:48;;;;;;;6.43;5.78;;;;;;;16.23;47.94;94343.44;4971511;28;20062;-78
2021/09/09 00:19:14;;;;;;;7.43;6.13;;;;;;;16.32;48.01;94348.75;4967615;28;20046;-75
2021/09/09 00:21:39;;;;;;;7.47;6.78;;;;;;;16.08;48.27;94327.25;4976090;28;20085;-75
2021/09/09 00:24:05;;;;;;;9.07;7.05;;;;;;;16.11;48.39;94327.34;4969543;28;20042;-75
2021/09/09 00:26:30;;;;;;;7.53;6.82;;;;;;;15.91;48.89;94336.25;4967131;28;20264;-75
2021/09/09 00:28:55;;;;;;;9.55;7.82;;;;;;;15.74;49.40;94321.13;4956572;28;20042;-76
2021/09/09 00:31:21;;;;;;;8.07;7.25;;;;;;;15.71;49.69;94326.41;4968609;28;20995;-75
2021/09/09 00:33:46;;;;;;;8.68;7.60;;;;;;;15.81;49.37;94315.25;4970677;28;20038;-75
2021/09/09 00:36:12;;;;;;;8.32;7.60;;;;;;;15.85;49.52;94332.22;4972002;28;20025;-76
2021/09/09 00:38:38;;;;;;;9.68;8.73;;;;;;;15.80;50.04;94329.75;4971964;28;20513;-75
2021/09/09 00:41:05;;;;;;;8.85;7.97;;;;;;;15.97;49.50;94328.78;4971857;28;20038;-75
2021/09/09 00:43:30;;;;;;;11.88;8.18;;;;;;;15.93;49.27;94327.91;4967086;28;20076;-75
2021/09/09 00:45:56;;;;;;;9.95;8.18;;;;;;;16.08;48.93;94329.91;4968822;28;20022;-76
2021/09/09 00:48:23;;;;;;;9.73;8.82;;;;;;;16.23;48.80;94311.22;4966696;28;20045;-75
2021/09/09 00:50:49;;;;;;;11.93;9.23;;;;;;;16.50;48.53;94325.13;4972922;28;20520;-75
2021/09/09 00:53:15;;;;;;;10.75;7.50;;;;;;;16.61;48.07;94326.22;4966004;28;20069;-75
2021/09/09 00:55:41;;;;;;;8.55;7.15;;;;;;;16.66;47.75;94309.88;4975220;28;20034;-76
2021/09/09 00:58:08;;;;;;;10.27;7.57;;;;;;;16.69;47.95;94322.63;4971766;28;20572;-77
2021/09/09 01:00:34;;;;;;;9.98;8.07;;;;;;;16.73;47.32;94302.81;4974522;28;20546;-75
2021/09/09 01:03:00;;;;;;;13.52;8.77;;;;;;;16.92;47.38;94317.53;4969737;28;20285;-75
2021/09/09 01:05:25;;;;;;;9.02;8.18;;;;;;;16.92;46.88;94321.00;4976762;28;20489;-75
2021/09/09 01:07:51;;;;;;;10.50;9.40;;;;;;;16.84;47.38;94307.69;4971960;28;20400;-74
2021/09/09 01:10:17;;;;;;;8.65;7.93;;;;;;;16.82;46.84;94324.16;4972715;28;20050;-77
2021/09/09 01:12:43;;;;;;;9.48;8.45;;;;;;;16.91;46.81;94314.06;4978862;28;20049;-77
2021/09/09 01:15:09;;;;;;;8.85;8.07;;;;;;;16.84;46.73;94318.44;4972520;28;20064;-76
2021/09/09 01:17:34;;;;;;;9.68;8.63;;;;;;;16.98;46.63;94318.84;4970916;28;20034;-75
2021/09/09 01:20:00;;;;;;;10.05;8.32;;;;;;;17.10;46.26;94316.13;4972748;28;20357;-75
2021/09/09 01:22:26;;;;;;;9.48;8.40;;;;;;;17.13;46.32;94323.50;4973234;28;20462;-75
2021/09/09 01:24:51;;;;;;;11.98;7.93;;;;;;;16.99;46.23;94321.22;4970267;28;20591;-77
2021/09/09 01:27:17;;;;;;;9.57;7.85;;;;;;;16.56;47.38;94318.41;4974267;28;20479;-77
2021/09/09 01:29:44;;;;;;;10.23;9.30;;;;;;;16.71;47.14;94323.09;4977235;28;21033;-76
2021/09/09 01:32:11;;;;;;;9.32;8.25;;;;;;;16.52;47.10;94317.53;4969633;28;20048;-75
2021/09/09 01:34:37;;;;;;;8.85;8.05;;;;;;;16.68;47.06;94326.41;4965660;28;20062;-77
2021/09/09 01:37:03;;;;;;;10.05;8.10;;;;;;;16.68;46.85;94323.75;4968993;28;20040;-76
2021/09/09 01:39:29;;;;;;;10.38;8.32;;;;;;;16.67;46.84;94324.88;4970031;28;20038;-76
2021/09/09 01:41:57;;;;;;;9.65;8.20;;;;;;;16.73;46.90;94326.97;4973883;28;20038;-76
2021/09/09 01:44:23;;;;;;;10.60;9.15;;;;;;;16.51;47.70;94318.63;4957979;28;20065;-75
2021/09/09 01:46:49;;;;;;;9.43;8.63;;;;;;;16.47;47.30;94309.69;4972115;28;20777;-76
2021/09/09 01:49:16;;;;;;;9.40;8.60;;;;;;;16.67;47.08;94322.19;4970191;28;20456;-75
2021/09/09 01:51:42;;;;;;;12.13;7.82;;;;;;;16.33;47.61;94305.44;4971882;28;20038;-76
2021/09/09 01:54:07;;;;;;;10.43;7.78;;;;;;;15.94;48.98;94324.84;4972032;28;20340;-76
2021/09/09 01:56:33;;;;;;;12.80;8.13;;;;;;;15.84;48.92;94323.41;4973391;28;20388;-76
2021/09/09 01:58:59;;;;;;;9.60;8.63;;;;;;;16.15;48.33;94314.81;4968233;28;20046;-75
2021/09/09 02:01:25;;;;;;;8.40;7.45;;;;;;;16.19;48.34;94323.75;4974392;28;20762;-76
2021/09/09 02:03:51;;;;;;;9.57;7.97;;;;;;;16.20;48.10;94321.84;4976253;28;20332;-77
2021/09/09 02:06:16;;;;;;;9.23;7.82;;;;;;;15.98;48.30;94303.53;4973691;28;20036;-76
2021/09/09 02:08:43;;;;;;;8.35;7.55;;;;;;;16.13;48.64;94311.69;4971621;28;20034;-76
2021/09/09 02:11:08;;;;;;;8.82;7.38;;;;;;;16.12;48.52;94315.50;4971064;28;20038;-76
2021/09/09 02:13:34;;;;;;;9.85;7.50;;;;;;;15.92;48.75;94313.69;4968990;28;20907;-76
2021/09/09 02:16:00;;;;;;;16.00;8.85;;;;;;;15.84;49.32;94314.59;4970916;28;20054;-76
2021/09/09 02:18:25;;;;;;;8.65;7.40;;;;;;;15.94;49.24;94313.38;4970653;28;20416;-76
2021/09/09 02:20:51;;;;;;;10.40;7.30;;;;;;;15.79;49.23;94306.75;4975231;28;20129;-76
2021/09/09 02:23:17;;;;;;;8.50;7.65;;;;;;;15.78;49.01;94300.63;4970304;28;20049;-75
2021/09/09 02:25:42;;;;;;;8.30;6.97;;;;;;;15.95;48.87;94315.69;4971656;28;20042;-75
2021/09/09 02:28:08;;;;;;;8.10;7.38;;;;;;;16.02;48.70;94318.63;4968237;28;20087;-76
2021/09/09 02:30:33;;;;;;;8.02;7.32;;;;;;;16.13;48.69;94327.81;4973307;28;20026;-76
2021/09/09 02:32:59;;;;;;;7.88;7.15;;;;;;;16.19;48.33;94310.34;4972800;28;20529;-76
2021/09/09 02:35:24;;;;;;;8.20;7.50;;;;;;;15.82;49.48;94327.53;4963131;28;20045;-77
2021/09/09 02:37:50;;;;;;;7.47;6.88;;;;;;;15.88;49.23;94320.84;4972788;28;20038;-76
2021/09/09 02:40:15;;;;;;;8.48;7.55;;;;;;;15.97;49.00;94305.44;4972315;28;20057;-76
2021/09/09 02:42:42;;;;;;;8.88;6.97;;;;;;;16.07;48.88;94317.63;4972766;28;20196;-76
2021/09/09 02:45:08;;;;;;;8.43;7.05;;;;;;;16.04;49.12;94324.41;4970701;28;20556;-75
2021/09/09 02:47:34;;;;;;;7.28;6.63;;;;;;;15.85;49.43;94318.81;4969940;28;20042;-76
2021/09/09 02:50:00;;;;;;;8.77;7.20;;;;;;;15.89;49.32;94306.28;4969628;28;20396;-75
2021/09/09 02:52:26;;;;;;;11.60;7.22;;;;;;;15.95;49.29;94326.44;4972103;28;20092;-77
2021/09/09 02:54:52;;;;;;;7.80;7.10;;;;;;;15.55;50.19;94307.47;4971660;28;20038;-76
2021/09/09 02:57:18;;;;;;;8.85;7.95;;;;;;;15.83;49.84;94313.03;4971688;28;20091;-75
2021/09/09 02:59:43;;;;;;;8.27;7.53;;;;;;;15.62;50.20;94302.38;4973405;28;20070;-77
2021/09/09 03:02:08;;;;;;;12.60;6.80;;;;;;;15.53;50.22;94314.31;4970286;28;20232;-76
2021/09/09 03:04:34;;;;;;;8.43;6.75;;;;;;;15.83;49.89;94324.53;4971388;28;20531;-76
2021/09/09 03:06:59;;;;;;;7.93;6.68;;;;;;;15.56;50.52;94327.81;4970192;28;20113;-76
2021/09/09 03:09:25;;;;;;;7.88;6.72;;;;;;;15.57;50.45;94320.56;4973704;28;20440;-75
2021/09/09 03:11:50;;;;;;;9.15;6.20;;;;;;;15.60;50.35;94317.19;4972497;28;20034;-75
2021/09/09 03:14:16;;;;;;;6.50;5.90;;;;;;;15.82;49.99;94332.91;4962599;28;20040;-75
2021/09/09 03:16:41;;;;;;;9.27;6.07;;;;;;;15.65;50.64;94327.72;4969056;28;20053;-76
2021/09/09 03:19:06;;;;;;;11.75;7.15;;;;;;;15.77;50.40;94322.38;4967544;28;20957;-74
2021/09/09 03:21:32;;;;;;;8.82;6.20;;;;;;;15.87;50.23;94327.31;4967587;28;20030;-75
2021/09/09 03:23:57;;;;;;;8.60;6.45;;;;;;;15.86;50.21;94329.22;4972994;28;20420;-76
2021/09/09 03:26:23;;;;;;;10.60;6.00;;;;;;;15.94;50.24;94329.47;4973054;28;20492;-75
2021/09/09 03:28:48;;;;;;;7.28;6.57;;;;;;;15.62;51.01;94323.81;4966768;28;20409;-76
2021/09/09 03:31:14;;;;;;;5.85;5.40;;;;;;;15.79;50.71;94330.91;4972148;28;20042;-76
2021/09/09 03:33:39;;;;;;;6.72;5.65;;;;;;;15.32;51.78;94309.75;4968473;28;20052;-75
2021/09/09 03:36:05;;;;;;;9.30;5.40;;;;;;;15.65;51.26;94331.19;4968004;28;20069;-76
2021/09/09 03:38:30;;;;;;;6.32;5.38;;;;;;;15.71;50.89;94324.50;4964889;28;20634;-75
2021/09/09 03:40:56;;;;;;;9.10;6.72;;;;;;;15.56;51.33;94327.03;4972239;28;20458;-76
2021/09/09 03:43:21;;;;;;;6.53;5.60;;;;;;;15.32;51.63;94309.75;4973475;28;20488;-76
2021/09/09 03:45:47;;;;;;;9.90;5.18;;;;;;;15.19;52.02;94316.19;4972208;28;20410;-76
2021/09/09 03:48:13;;;;;;;6.80;5.88;;;;;;;15.31;52.34;94324.25;4969627;28;20665;-76
2021/09/09 03:50:38;;;;;;;6.43;5.38;;;;;;;15.28;52.33;94313.41;4962939;28;21229;-76
2021/09/09 03:53:03;;;;;;;9.80;6.30;;;;;;;15.43;52.37;94326.97;4971125;28;20141;-75
2021/09/09 03:55:29;;;;;;;7.93;5.47;;;;;;;14.96;53.57;94323.75;4969570;28;20034;-76
2021/09/09 03:57:54;;;;;;;10.25;6.00;;;;;;;15.05;53.28;94329.06;4968105;28;20030;-76
2021/09/09 04:00:20;;;;;;;6.32;5.30;;;;;;;15.21;53.14;94335.38;4964203;28;20524;-76
2021/09/09 04:02:46;;;;;;;9.73;5.05;;;;;;;15.25;52.86;94335.53;4969455;28;20038;-75
2021/09/09 04:05:11;;;;;;;11.20;5.03;;;;;;;15.26;52.78;94329.81;4969823;28;20594;-75
2021/09/09 04:07:36;;;;;;;5.78;5.05;;;;;;;15.17;53.19;94339.03;4968497;28;20578;-75
2021/09/09 04:10:03;;;;;;;7.63;4.78;;;;;;;15.13;53.35;94336.25;4958484;28;20030;-75
2021/09/09 04:12:28;;;;;;;6.25;4.65;;;;;;;14.99;53.65;94333.06;4969964;28;20117;-75
2021/09/09 04:14:54;;;;;;;5.22;4.70;;;;;;;15.19;53.08;94326.91;4971457;28;20401;-76
2021/09/09 04:17:19;;;;;;;7.35;4.57;;;;;;;15.21;52.72;94316.63;4969683;28;20452;-77
2021/09/09 04:19:45;;;;;;;5.97;4.68;;;;;;;15.16;53.37;94338.25;4970105;28;20127;-76
2021/09/09 04:22:11;;;;;;;6.93;4.55;;;;;;;15.07;53.36;94328.72;4968389;28;20515;-75
2021/09/09 04:24:36;;;;;;;6.13;4.60;;;;;;;15.00;53.71;94322.03;4963216;28;20018;-75
2021/09/09 04:27:03;;;;;;;7.78;4.25;;;;;;;15.19;53.14;94332.25;4954195;28;20080;-75
2021/09/09 04:29:29;;;;;;;5.72;5.25;;;;;;;15.28;53.13;94321.44;4969538;28;20521;-76
2021/09/09 04:31:54;;;;;;;4.88;4.18;;;;;;;15.43;52.35;94321.63;4976949;28;20061;-76
2021/09/09 04:34:19;;;;;;;8.25;4.97;;;;;;;15.29;52.82;94310.41;4971858;28;20038;-76
2021/09/09 04:36:45;;;;;;;6.38;5.25;;;;;;;15.49;52.75;94324.13;4970320;28;20122;-76
2021/09/09 04:39:11;;;;;;;5.47;3.85;;;;;;;15.55;52.42;94306.72;4968813;28;20050;-76
2021/09/09 04:41:37;;;;;;;5.40;4.68;;;;;;;15.61;52.09;94326.81;4975142;28;20048;-76
2021/09/09 04:44:03;;;;;;;10.60;5.38;;;;;;;15.54;52.24;94315.88;4968684;28;20124;-76
2021/09/09 04:46:29;;;;;;;9.23;5.90;;;;;;;15.69;52.01;94321.38;4976763;28;20132;-76
2021/09/09 04:48:54;;;;;;;7.63;4.35;;;;;;;15.51;52.59;94300.44;4976578;28;20018;-76
2021/09/09 04:51:20;;;;;;;11.50;5.50;;;;;;;15.62;52.53;94321.13;4973121;28;20056;-76
2021/09/09 04:53:49;;;;;;;10.75;5.53;;;;;;;15.52;52.46;94302.00;4975276;28;20339;-74
2021/09/09 04:56:14;;;;;;;9.23;5.78;;;;;;;15.04;53.49;94284.63;4974723;28;20121;-76
2021/09/09 04:58:40;;;;;;;6.85;5.50;;;;;;;15.21;53.54;94303.22;4970204;28;20396;-76
2021/09/09 05:01:06;;;;;;;11.98;6.38;;;;;;;15.37;53.27;94301.50;4969707;28;20048;-76
2021/09/09 05:03:31;;;;;;;7.97;5.70;;;;;;;15.65;53.00;94295.53;4975419;28;20464;-76
2021/09/09 05:05:57;;;;;;;14.38;5.90;;;;;;;15.58;52.82;94306.03;4974837;28;20041;-75
2021/09/09 05:08:23;;;;;;;10.10;5.68;;;;;;;15.46;53.35;94304.91;4973249;28;20133;-76
2021/09/09 05:10:48;;;;;;;11.73;5.07;;;;;;;15.51;53.01;94289.72;4971572;28;20154;-75
2021/09/09 05:13:13;;;;;;;10.30;6.18;;;;;;;15.45;53.19;94289.91;4969926;28;20393;-76
2021/09/09 05:15:39;;;;;;;9.38;5.28;;;;;;;15.68;52.94;94300.25;4972252;28;20038;-76
2021/09/09 05:18:04;;;;;;;12.82;5.50;;;;;;;15.60;53.29;94309.16;4972296;28;20042;-75
2021/09/09 05:20:30;;;;;;;9.40;4.68;;;;;;;15.74;53.00;94310.41;4972608;28;20045;-75
2021/09/09 05:22:55;;;;;;;7.45;5.22;;;;;;;15.44;53.55;94301.78;4971153;28;20045;-74
2021/09/09 05:25:21;;;;;;;8.18;6.10;;;;;;;15.28;54.09;94303.47;4970814;28;20069;-77
2021/09/09 05:27:46;;;;;;;6.97;5.57;;;;;;;15.30;54.19;94306.59;4969967;28;20622;-75
2021/09/09 05:30:12;;;;;;;6.75;6.10;;;;;;;15.08;54.35;94282.88;4971573;28;20136;-76
2021/09/09 05:32:38;;;;;;;7.65;5.22;;;;;;;15.16;54.64;94306.09;4972478;28;20041;-75
2021/09/09 05:35:04;;;;;;;10.27;6.22;;;;;;;15.20;54.62;94296.31;4972615;28;20413;-74
2021/09/09 05:37:29;;;;;;;12.05;5.95;;;;;;;15.29;54.46;94288.97;4972167;28;20343;-75
2021/09/09 05:39:55;;;;;;;13.77;5.63;;;;;;;15.21;54.49;94311.25;4972138;28;20029;-75
2021/09/09 05:42:20;;;;;;;10.88;6.47;;;;;;;15.20;54.72;94301.69;4964316;28;20036;-74
2021/09/09 05:44:46;;;;;;;7.68;5.80;;;;;;;15.24;54.49;94291.88;4970758;28;20178;-74
2021/09/09 05:47:12;;;;;;;10.98;5.28;;;;;;;15.37;54.25;94293.44;4971432;28;21177;-75
2021/09/09 05:49:37;;;;;;;10.30;5.60;;;;;;;15.53;54.05;94292.84;4971503;28;20081;-74
2021/09/09 05:52:04;;;;;;;11.68;5.57;;;;;;;15.67;53.41;94296.78;4971790;28;20505;-77
2021/09/09 05:54:33;;;;;;;16.00;5.95;;;;;;;15.63;53.43;94298.56;4973875;28;20022;-75
2021/09/09 05:57:00;;;;;;;10.82;5.50;;;;;;;15.56;54.23;94302.91;4973783;28;20450;-76
2021/09/09 05:59:25;;;;;;;11.35;5.25;;;;;;;15.56;53.85;94281.44;4982444;28;20429;-75
2021/09/09 06:01:51;;;;;;;7.82;5.43;;;;;;;15.71;53.52;94296.91;4989204;28;20017;-75
2021/09/09 06:04:18;;;;;;;7.45;5.80;;;;;;;15.55;53.82;94290.63;4979422;28;20053;-76
2021/09/09 06:06:44;;;;;;;9.88;6.32;;;;;;;15.65;54.12;94300.91;4986206;28;20044;-75
2021/09/09 06:09:09;;;;;;;13.07;6.28;;;;;;;15.57;54.35;94273.09;4985082;28;20038;-75
2021/09/09 06:11:35;;;;;;;6.53;5.65;;;;;;;15.79;53.67;94293.34;4983840;28;20038;-76
2021/09/09 06:14:01;;;;;;;10.70;6.95;;;;;;;15.68;53.99;94284.94;4987397;28;20520;-75
2021/09/09 06:16:26;;;;;;;10.57;6.55;;;;;;;15.83;53.67;94295.03;4985624;28;20125;-75
2021/09/09 06:18:52;;;;;;;15.13;5.15;;;;;;;15.65;53.17;94290.97;4988018;28;20266;-74
2021/09/09 06:21:17;;;;;;;5.10;3.72;;;;;;;15.68;52.87;94287.63;4985305;28;20299;-75
2021/09/09 06:23:42;;;;;;;4.00;3.58;;;;;;;15.72;52.16;94295.78;4987071;28;20072;-75
2021/09/09 06:26:08;;;;;;;5.35;3.63;;;;;;;15.88;51.72;94288.66;4986939;28;20595;-75
2021/09/09 06:28:33;;;;;;;4.00;3.20;;;;;;;15.99;50.14;94286.31;4987054;28;20025;-76
2021/09/09 06:30:59;;;;;;;3.45;2.55;;;;;;;15.83;49.55;94275.47;4985236;28;20129;-75
2021/09/09 06:33:24;;;;;;;3.58;3.15;;;;;;;15.61;49.63;94267.84;4983287;28;20528;-76
2021/09/09 06:35:50;;;;;;;4.55;3.30;;;;;;;15.71;49.68;94284.28;4984102;28;20354;-76
2021/09/09 06:38:15;;;;;;;4.45;3.35;;;;;;;15.70;49.02;94277.34;4984156;28;20038;-75
2021/09/09 06:40:41;;;;;;;5.07;3.90;;;;;;;15.79;50.16;94290.66;4986102;28;20026;-77
2021/09/09 06:43:07;;;;;;;5.57;4.97;;;;;;;15.81;53.27;94293.78;4986867;28;20401;-76
2021/09/09 06:45:32;;;;;;;5.82;5.22;;;;;;;15.53;54.87;94292.84;4990496;28;20492;-75
2021/09/09 06:47:58;;;;;;;8.02;4.72;;;;;;;15.24;53.75;94297.22;4981880;28;20572;-75
2021/09/09 06:50:23;;;;;;;6.65;4.88;;;;;;;15.17;52.87;94286.25;4984581;28;20480;-76
2021/09/09 06:52:49;;;;;;;6.78;3.88;;;;;;;15.42;52.12;94284.41;4977772;28;20038;-75
2021/09/09 06:55:14;;;;;;;8.15;4.53;;;;;;;15.74;51.99;94299.69;4987031;28;20030;-75
2021/09/09 06:57:40;;;;;;;7.03;4.10;;;;;;;15.50;51.25;94314.97;4981889;28;20033;-76
2021/09/09 07:00:06;;;;;;;10.63;5.35;;;;;;;15.44;51.77;94309.81;4981613;28;20491;-77
2021/09/09 07:02:31;;;;;;;5.63;3.95;;;;;;;15.43;52.50;94305.53;4982473;28;20047;-75
2021/09/09 07:04:57;;;;;;;6.63;4.30;;;;;;;15.26;53.05;94299.53;4990596;28;20052;-77
2021/09/09 07:07:23;;;;;;;8.10;4.28;;;;;;;15.12;54.77;94313.25;4984688;28;20176;-76
2021/09/09 07:09:48;;;;;;;8.90;5.13;;;;;;;15.10;55.97;94320.84;4981334;28;20033;-76
2021/09/09 07:12:13;;;;;;;7.47;5.47;;;;;;;14.80;57.46;94311.31;4984333;28;20272;-77
2021/09/09 07:14:39;;;;;;;7.65;5.40;;;;;;;14.54;58.08;94306.16;4985078;28;20038;-76
2021/09/09 07:17:04;;;;;;;10.38;5.72;;;;;;;14.36;59.21;94318.84;4992148;28;20038;-76
2021/09/09 07:19:31;;;;;;;8.90;5.07;;;;;;;14.58;57.95;94305.16;4983365;28;20046;-76
2021/09/09 07:21:56;;;;;;;8.45;5.25;;;;;;;14.82;57.70;94317.91;4984911;28;20290;-77
2021/09/09 07:24:22;;;;;;;6.00;3.72;;;;;;;15.11;55.72;94319.69;4982621;28;20841;-76
2021/09/09 07:26:48;;;;;;;7.35;4.03;;;;;;;15.16;56.19;94322.19;4982758;28;20046;-77
2021/09/09 07:29:14;;;;;;;8.93;3.88;;;;;;;15.17;56.08;94323.75;4984698;28;20064;-76
2021/09/09 07:31:43;;;;;;;6.88;4.57;;;;;;;15.28;56.12;94324.91;4980061;28;20042;-76
2021/09/09 07:34:10;;;;;;;9.82;4.57;;;;;;;14.79;56.94;94302.50;4983803;28;20076;-75
2021/09/09 07:36:35;;;;;;;13.05;4.95;;;;;;;15.07;57.39;94329.50;4983149;28;20382;-76
2021/09/09 07:39:01;;;;;;;10.40;4.68;;;;;;;15.08;57.04;94333.75;4986267;28;20065;-75
2021/09/09 07:41:26;;;;;;;6.63;4.68;;;;;;;15.19;57.15;94334.94;4987764;28;20070;-76
2021/09/09 07:43:52;;;;;;;5.53;3.50;;;;;;;14.99;57.19;94335.72;4982574;28;20125;-75
2021/09/09 07:46:18;;;;;;;15.93;5.28;;;;;;;14.76;58.61;94345.22;4986802;28;20400;-76
2021/09/09 07:48:43;;;;;;;11.98;4.57;;;;;;;14.72;58.57;94341.59;4983787;28;20026;-77
2021/09/09 07:51:09;;;;;;;6.55;3.83;;;;;;;14.81;58.43;94334.31;4987299;28;20030;-76
2021/09/09 07:53:34;;;;;;;8.95;3.88;;;;;;;15.12;57.52;94331.19;4983452;28;20050;-76
2021/09/09 07:56:00;;;;;;;11.38;4.72;;;;;;;15.27;56.93;94352.81;4986959;28;20035;-76
2021/09/09 07:58:25;;;;;;;8.75;4.93;;;;;;;15.40;57.45;94353.66;4985501;28;20026;-76
2021/09/09 08:00:51;;;;;;;5.65;4.68;;;;;;;15.51;56.56;94359.41;4983745;28;20061;-77
2021/09/09 08:03:16;;;;;;;8.05;4.05;;;;;;;15.40;56.58;94356.34;4988051;28;20037;-76
2021/09/09 08:05:42;;;;;;;6.93;4.60;;;;;;;15.38;56.54;94343.25;4988092;28;20065;-76
2021/09/09 08:08:07;;;;;;;7.25;4.55;;;;;;;15.61;56.20;94353.63;4990082;28;20604;-77
2021/09/09 08:10:33;;;;;;;6.75;4.55;;;;;;;15.56;56.49;94356.53;4987337;28;20529;-76
2021/09/09 08:12:59;;;;;;;6.47;3.75;;;;;;;15.38;56.23;94351.31;4990060;28;20034;-76
2021/09/09 08:15:24;;;;;;;12.98;3.85;;;;;;;15.58;55.66;94354.31;4987711;28;20041;-77
2021/09/09 08:17:50;;;;;;;9.50;4.10;;;;;;;15.61;55.91;94364.34;4991685;28;20084;-77
2021/09/09 08:20:16;;;;;;;13.85;3.97;;;;;;;15.50;55.81;94352.50;4988224;28;20623;-77
2021/09/09 08:22:42;;;;;;;11.63;4.40;;;;;;;15.65;56.10;94365.25;4987937;28;20088;-76
2021/09/09 08:25:09;;;;;;;6.78;4.07;;;;;;;15.63;55.97;94367.50;4988250;28;20056;-76
2021/09/09 08:27:35;;;;;;;6.38;3.00;;;;;;;15.73;55.70;94351.00;4988533;28;20034;-77
2021/09/09 08:30:01;;;;;;;11.40;4.05;;;;;;;15.54;56.52;94364.13;4989809;28;20034;-76
2021/09/09 08:32:27;;;;;;;6.95;3.10;;;;;;;15.17;57.50;94339.03;4985042;28;20046;-76
2021/09/09 08:34:53;;;;;;;5.95;4.00;;;;;;;15.53;58.21;94362.56;4989586;28;20033;-77
2021/09/09 08:37:19;;;;;;;8.10;4.45;;;;;;;15.41;58.63;94361.34;4985413;28;20045;-76
2021/09/09 08:39:44;;;;;;;8.30;3.47;;;;;;;15.54;59.12;94364.13;4988426;28;20485;-76
2021/09/09 08:42:13;;;;;;;7.00;3.60;;;;;;;15.52;58.40;94364.44;4987884;28;20363;-76
2021/09/09 08:44:39;;;;;;;4.63;3.70;;;;;;;15.53;58.38;94359.88;4980453;28;20089;-76
2021/09/09 08:47:07;;;;;;;9.65;3.60;;;;;;;15.49;59.01;94356.28;4985164;28;20045;-77
2021/09/09 08:49:33;;;;;;;6.65;4.18;;;;;;;15.60;60.65;94366.25;4987435;28;20578;-76
2021/09/09 08:51:58;;;;;;;8.38;4.63;;;;;;;15.29;61.25;94347.94;4988103;28;20033;-76
2021/09/09 08:54:24;;;;;;;9.93;4.82;;;;;;;15.45;61.79;94362.28;4986835;28;20625;-76
2021/09/09 08:56:50;;;;;;;10.18;5.07;;;;;;;15.49;61.36;94356.28;4987660;28;20080;-76
2021/09/09 08:59:15;;;;;;;8.35;4.75;;;;;;;15.52;62.21;94356.41;4987612;28;20038;-76
2021/09/09 09:01:59;;;;;;;9.55;5.47;;;;;;;15.53;62.93;94359.88;4988796;28;20050;-77
2021/09/09 09:04:24;;;;;;;7.60;5.18;;;;;;;15.42;63.29;94341.50;4989676;28;20025;-76
2021/09/09 09:06:51;;;;;;;8.05;4.90;;;;;;;15.26;62.64;94329.81;4988654;28;20026;-76
2021/09/09 09:09:19;;;;;;;9.45;4.35;;;;;;;15.37;63.49;94349.72;4988365;28;20161;-76
2021/09/09 09:11:46;;;;;;;10.18;5.10;;;;;;;15.56;63.69;94359.19;4988272;28;20034;-76
2021/09/09 09:14:18;;;;;;;9.20;5.43;;;;;;;15.50;63.36;94355.19;4991229;28;20045;-77
2021/09/09 09:16:54;;;;;;;12.07;5.05;;;;;;;15.45;64.81;94351.56;4983637;28;20053;-76
2021/09/09 09:19:23;;;;;;;9.85;4.85;;;;;;;15.38;65.11;94343.25;4987788;28;20085;-77
2021/09/09 09:22:00;;;;;;;10.82;5.57;;;;;;;15.34;66.07;94349.63;4988360;28;20027;-76
2021/09/09 09:24:32;;;;;;;7.75;5.70;;;;;;;15.21;66.18;94346.09;4986602;28;20136;-76
2021/09/09 09:27:08;;;;;;;12.75;6.00;;;;;;;15.09;67.50;94347.94;4987090;28;20065;-76
2021/09/09 09:29:34;;;;;;;8.35;6.05;;;;;;;15.16;67.83;94343.63;4987469;28;20440;-77
2021/09/09 09:32:12;;;;;;;8.68;5.45;;;;;;;15.20;67.94;94349.13;4985999;28;20038;-76
2021/09/09 09:34:39;;;;;;;8.65;5.65;;;;;;;15.30;68.29;94320.00;4989500;28;20038;-76
2021/09/09 09:37:04;;;;;;;8.27;5.15;;;;;;;15.18;68.28;94325.31;4986852;28;20030;-76
2021/09/09 09:39:31;;;;;;;10.80;5.32;;;;;;;15.30;67.75;94321.91;4986347;28;20145;-76
2021/09/09 09:42:03;;;;;;;5.68;4.80;;;;;;;15.56;66.77;94329.72;4984512;28;20030;-77
2021/09/09 09:44:40;;;;;;;5.70;4.60;;;;;;;15.47;65.33;94329.81;4986748;28;20050;-76
2021/09/09 09:47:20;;;;;;;4.65;3.20;;;;;;;15.44;61.64;94341.97;4987453;28;20044;-77
2021/09/09 09:49:50;;;;;;;5.13;1.77;;;;;;;15.34;57.83;94337.00;4984377;28;20053;-76
2021/09/09 09:52:23;;;;;;;4.25;2.60;;;;;;;15.56;57.68;94330.50;4986115;28;20022;-76
2021/09/09 09:54:51;;;;;;;4.28;1.50;;;;;;;15.63;55.89;94329.97;4985269;28;20556;-76
2021/09/09 09:57:16;;;;;;;4.80;2.08;;;;;;;15.54;56.15;94315.88;4986448;28;20597;-76
2021/09/09 09:59:42;;;;;;;3.30;1.90;;;;;;;15.19;56.22;94278.66;4988082;28;20044;-76
2021/09/09 10:02:10;;;;;;;5.03;1.90;;;;;;;15.51;56.19;94329.91;4987885;28;20045;-75
2021/09/09 10:04:35;;;;;;;2.17;1.75;;;;;;;15.46;55.73;94326.34;4980785;28;20069;-76
2021/09/09 10:07:01;;;;;;;3.25;2.25;;;;;;;15.30;56.13;94303.91;4966367;28;20632;-76
2021/09/09 10:09:27;;;;;;;6.65;1.85;;;;;;;15.63;56.25;94332.66;4982203;28;20738;-76
2021/09/09 10:11:53;;;;;;;8.45;2.65;;;;;;;15.84;56.03;94322.63;4987133;28;20492;-76
2021/09/09 10:14:25;;;;;;;4.45;2.20;;;;;;;15.75;55.79;94325.41;4985416;28;20049;-75
2021/09/09 10:16:55;;;;;;;6.18;2.70;;;;;;;15.80;56.16;94329.75;4983297;28;20188;-76
2021/09/09 10:19:30;;;;;;;5.10;2.10;;;;;;;15.92;55.69;94332.47;4979579;28;21350;-77
2021/09/09 10:22:11;;;;;;;7.93;2.28;;;;;;;16.00;55.21;94326.22;4981699;28;20026;-76
2021/09/09 10:24:39;;;;;;;3.83;2.38;;;;;;;16.01;55.66;94327.78;4983041;28;20104;-77
2021/09/09 10:27:47;;;;;;;7.30;2.00;;;;;;;16.00;55.14;94328.91;4982353;28;20042;-77
2021/09/09 10:30:18;;;;;;;3.67;2.47;;;;;;;16.00;54.59;94328.91;4986624;28;20787;-77
2021/09/09 10:32:47;;;;;;;4.70;2.30;;;;;;;16.03;54.98;94328.25;4980439;28;20046;-74
2021/09/09 10:35:16;;;;;;;5.55;2.13;;;;;;;15.92;54.83;94324.44;4987794;28;20038;-75
2021/09/09 10:37:58;;;;;;;6.60;2.63;;;;;;;16.08;54.21;94319.97;4983249;28;20038;-76
2021/09/09 10:40:32;;;;;;;5.68;2.40;;;;;;;16.13;54.74;94319.75;4983171;28;20485;-76
2021/09/09 10:43:03;;;;;;;8.87;2.20;;;;;;;16.27;54.82;94322.09;4986695;28;20042;-77
2021/09/09 10:45:34;;;;;;;3.47;1.80;;;;;;;16.09;54.27;94329.56;4984749;28;20365;-76
2021/09/09 10:48:21;;;;;;;6.15;1.95;;;;;;;16.15;54.70;94328.22;4983820;28;20046;-76
2021/09/09 10:51:04;;;;;;;2.97;1.65;;;;;;;16.25;54.04;94317.06;4984329;28;20042;-76
2021/09/09 10:53:38;;;;;;;7.43;1.83;;;;;;;16.46;55.74;94318.88;4982215;28;20259;-76
2021/09/09 10:56:12;;;;;;;3.33;1.50;;;;;;;16.61;53.39;94310.91;4983265;28;20045;-75
2021/09/09 10:58:39;;;;;;;10.35;2.88;;;;;;;16.83;53.66;94314.97;4982778;28;20046;-76
2021/09/09 11:01:05;;;;;;;3.10;1.52;;;;;;;17.16;52.54;94309.41;4983582;28;20197;-76
2021/09/09 11:03:37;;;;;;;3.45;1.55;;;;;;;17.20;51.36;94318.38;4983868;28;20623;-76
2021/09/09 11:06:10;;;;;;;7.30;1.88;;;;;;;17.10;49.80;94311.56;4988166;28;20156;-76
2021/09/09 11:08:37;;;;;;;4.50;2.15;;;;;;;17.25;51.02;94303.91;4990493;28;20217;-76
2021/09/09 11:11:07;;;;;;;3.95;1.95;;;;;;;17.19;48.29;94303.38;4979712;28;20069;-77
2021/09/09 11:13:35;;;;;;;4.78;1.63;;;;;;;17.51;48.96;94309.59;4981043;28;20052;-76
2021/09/09 11:16:16;;;;;;;1.92;1.73;;;;;;;17.25;49.13;94296.63;4987321;28;20087;-77
2021/09/09 11:18:43;;;;;;;5.32;2.10;;;;;;;17.18;49.02;94310.66;4984884;28;20919;-76
2021/09/09 11:21:08;;;;;;;2.85;1.50;;;;;;;17.00;48.20;94289.75;4977537;28;20842;-75
2021/09/09 11:23:35;;;;;;;2.85;1.45;;;;;;;16.94;48.81;94293.78;4980940;28;20104;-76
2021/09/09 11:26:11;;;;;;;4.47;1.55;;;;;;;17.01;48.55;94297.44;4980386;28;20424;-76
2021/09/09 11:28:37;;;;;;;4.45;1.70;;;;;;;16.93;48.04;94268.84;4983767;28;20074;-76
2021/09/09 11:31:12;;;;;;;5.60;1.98;;;;;;;16.97;48.07;94266.22;4978882;28;20117;-77